sensor_id;sensor_type;location;lat;lon;timestamp;temperature;humidity
23207;DHT22;11773;52.570;13.052;2023-06-10T00:01:42;19.60;99.90
23207;DHT22;11773;52.570;13.052;2023-06-10T00:04:14;19.50;99.90
23207;DHT22;11773;52.570;13.052;2023-06-10T00:06:45;19.70;99.90
23207;DHT22;11773;52.570;13.052;2023-06-10T00:09:17;19.70;99.90
23207;DHT22;11773;52.570;13.052;2023-06-10T00:11:46;19.70;99.90
23207;DHT22;11773;52.570;13.052;2023-06-10T00:14:16;19.70;99.90
23207;DHT22;11773;52.570;13.052;2023-06-10T00:16:46;19.50;99.90
23207;DHT22;11773;52.570;13.052;2023-06-10T00:19:15;19.40;99.90
23207;DHT22;11773;52.570;13.052;2023-06-10T00:21:46;19.60;99.90
23207;DHT22;11773;52.570;13.052;2023-06-10T00:24:16;19.70;99.90
23207;DHT22;11773;52.570;13.052;2023-06-10T00:26:45;19.60;99.90
23207;DHT22;11773;52.570;13.052;2023-06-10T00:29:15;19.50;99.90
23207;DHT22;11773;52.570;13.052;2023-06-10T00:31:45;19.60;99.90
23207;DHT22;11773;52.570;13.052;2023-06-10T00:34:15;19.50;99.90
23207;DHT22;11773;52.570;13.052;2023-06-10T00:36:44;19.50;99.90
23207;DHT22;11773;52.570;13.052;2023-06-10T00:39:14;19.50;99.90
23207;DHT22;11773;52.570;13.052;2023-06-10T00:41:44;19.40;99.90
23207;DHT22;11773;52.570;13.052;2023-06-10T00:44:13;19.20;99.90
23207;DHT22;11773;52.570;13.052;2023-06-10T00:46:44;19.30;99.90
23207;DHT22;11773;52.570;13.052;2023-06-10T00:49:14;19.30;99.90
23207;DHT22;11773;52.570;13.052;2023-06-10T00:51:44;19.20;99.90
23207;DHT22;11773;52.570;13.052;2023-06-10T00:54:14;19.20;99.90
23207;DHT22;11773;52.570;13.052;2023-06-10T00:56:44;19.20;99.90
23207;DHT22;11773;52.570;13.052;2023-06-10T00:59:14;19.10;99.90
23207;DHT22;11773;52.570;13.052;2023-06-10T01:01:45;19.00;99.90
23207;DHT22;11773;52.570;13.052;2023-06-10T01:04:18;19.10;99.90
23207;DHT22;11773;52.570;13.052;2023-06-10T01:06:52;19.00;99.90
23207;DHT22;11773;52.570;13.052;2023-06-10T01:09:24;19.00;99.90
23207;DHT22;11773;52.570;13.052;2023-06-10T01:12:19;19.00;99.90
23207;DHT22;11773;52.570;13.052;2023-06-10T01:14:45;18.90;99.90
23207;DHT22;11773;52.570;13.052;2023-06-10T01:17:17;18.90;99.90
23207;DHT22;11773;52.570;13.052;2023-06-10T01:19:54;18.90;99.90
23207;DHT22;11773;52.570;13.052;2023-06-10T01:22:25;18.90;99.90
23207;DHT22;11773;52.570;13.052;2023-06-10T01:24:59;18.90;99.90
23207;DHT22;11773;52.570;13.052;2023-06-10T01:27:33;19.10;99.90
23207;DHT22;11773;52.570;13.052;2023-06-10T01:30:16;19.00;99.90
23207;DHT22;11773;52.570;13.052;2023-06-10T01:32:48;18.90;99.90
23207;DHT22;11773;52.570;13.052;2023-06-10T01:35:21;18.90;99.90
23207;DHT22;11773;52.570;13.052;2023-06-10T01:37:57;18.80;99.90
23207;DHT22;11773;52.570;13.052;2023-06-10T01:40:30;18.80;99.90
23207;DHT22;11773;52.570;13.052;2023-06-10T01:43:01;18.70;99.90
23207;DHT22;11773;52.570;13.052;2023-06-10T01:45:31;18.90;99.90
23207;DHT22;11773;52.570;13.052;2023-06-10T01:48:00;18.70;99.90
23207;DHT22;11773;52.570;13.052;2023-06-10T01:50:30;18.60;99.90
23207;DHT22;11773;52.570;13.052;2023-06-10T01:53:00;18.70;99.90
23207;DHT22;11773;52.570;13.052;2023-06-10T01:55:29;18.70;99.90
23207;DHT22;11773;52.570;13.052;2023-06-10T01:57:59;18.70;99.90
23207;DHT22;11773;52.570;13.052;2023-06-10T02:00:29;18.70;99.90
23207;DHT22;11773;52.570;13.052;2023-06-10T02:02:59;18.60;99.90
23207;DHT22;11773;52.570;13.052;2023-06-10T02:05:28;18.70;99.90
23207;DHT22;11773;52.570;13.052;2023-06-10T02:07:58;18.80;99.90
23207;DHT22;11773;52.570;13.052;2023-06-10T02:10:28;18.70;99.90
23207;DHT22;11773;52.570;13.052;2023-06-10T02:12:58;18.60;99.90
23207;DHT22;11773;52.570;13.052;2023-06-10T02:15:27;18.50;99.90
23207;DHT22;11773;52.570;13.052;2023-06-10T02:17:57;18.60;99.90
23207;DHT22;11773;52.570;13.052;2023-06-10T02:20:28;18.60;99.90
23207;DHT22;11773;52.570;13.052;2023-06-10T02:22:59;18.60;99.90
23207;DHT22;11773;52.570;13.052;2023-06-10T02:25:28;18.60;99.90
23207;DHT22;11773;52.570;13.052;2023-06-10T02:27:58;18.60;99.90
23207;DHT22;11773;52.570;13.052;2023-06-10T02:30:28;18.50;99.90
23207;DHT22;11773;52.570;13.052;2023-06-10T02:32:58;18.50;99.90
23207;DHT22;11773;52.570;13.052;2023-06-10T02:35:29;18.40;99.90
23207;DHT22;11773;52.570;13.052;2023-06-10T02:37:58;18.50;99.90
23207;DHT22;11773;52.570;13.052;2023-06-10T02:40:28;18.30;99.90
23207;DHT22;11773;52.570;13.052;2023-06-10T02:42:58;18.40;99.90
23207;DHT22;11773;52.570;13.052;2023-06-10T02:45:28;18.40;99.90
23207;DHT22;11773;52.570;13.052;2023-06-10T02:47:57;18.30;99.90
23207;DHT22;11773;52.570;13.052;2023-06-10T02:50:27;18.10;99.90
23207;DHT22;11773;52.570;13.052;2023-06-10T02:52:56;18.30;99.90
23207;DHT22;11773;52.570;13.052;2023-06-10T02:55:26;18.30;99.90
23207;DHT22;11773;52.570;13.052;2023-06-10T02:57:57;18.30;99.90
23207;DHT22;11773;52.570;13.052;2023-06-10T03:00:28;18.40;99.90
23207;DHT22;11773;52.570;13.052;2023-06-10T03:02:57;18.40;99.90
23207;DHT22;11773;52.570;13.052;2023-06-10T03:05:30;17.90;99.90
23207;DHT22;11773;52.570;13.052;2023-06-10T03:08:00;18.20;99.90
23207;DHT22;11773;52.570;13.052;2023-06-10T03:10:30;18.10;99.90
23207;DHT22;11773;52.570;13.052;2023-06-10T03:13:00;18.20;99.90
23207;DHT22;11773;52.570;13.052;2023-06-10T03:15:30;18.30;99.90
23207;DHT22;11773;52.570;13.052;2023-06-10T03:18:00;18.20;99.90
23207;DHT22;11773;52.570;13.052;2023-06-10T03:20:30;18.20;99.90
23207;DHT22;11773;52.570;13.052;2023-06-10T03:23:01;18.00;99.90
23207;DHT22;11773;52.570;13.052;2023-06-10T03:25:31;18.10;99.90
23207;DHT22;11773;52.570;13.052;2023-06-10T03:28:01;18.20;99.90
23207;DHT22;11773;52.570;13.052;2023-06-10T03:30:30;18.20;99.90
23207;DHT22;11773;52.570;13.052;2023-06-10T03:33:00;18.10;99.90
23207;DHT22;11773;52.570;13.052;2023-06-10T03:35:31;18.00;99.90
23207;DHT22;11773;52.570;13.052;2023-06-10T03:38:02;18.10;99.90
23207;DHT22;11773;52.570;13.052;2023-06-10T03:40:32;18.10;99.90
23207;DHT22;11773;52.570;13.052;2023-06-10T03:43:01;18.20;99.90
23207;DHT22;11773;52.570;13.052;2023-06-10T03:45:31;18.10;99.90
23207;DHT22;11773;52.570;13.052;2023-06-10T03:48:01;18.00;99.90
23207;DHT22;11773;52.570;13.052;2023-06-10T03:50:31;18.00;99.90
23207;DHT22;11773;52.570;13.052;2023-06-10T03:53:00;18.10;99.90
23207;DHT22;11773;52.570;13.052;2023-06-10T03:55:30;18.10;99.90
23207;DHT22;11773;52.570;13.052;2023-06-10T03:58:00;18.20;99.90
23207;DHT22;11773;52.570;13.052;2023-06-10T04:00:29;18.20;99.90
23207;DHT22;11773;52.570;13.052;2023-06-10T04:03:00;18.20;99.90
23207;DHT22;11773;52.570;13.052;2023-06-10T04:05:30;18.00;99.90
23207;DHT22;11773;52.570;13.052;2023-06-10T04:08:00;18.00;99.90
23207;DHT22;11773;52.570;13.052;2023-06-10T04:10:29;18.10;99.90
23207;DHT22;11773;52.570;13.052;2023-06-10T04:12:59;18.10;99.90
23207;DHT22;11773;52.570;13.052;2023-06-10T04:15:29;18.10;99.90
23207;DHT22;11773;52.570;13.052;2023-06-10T04:18:00;18.20;99.90
23207;DHT22;11773;52.570;13.052;2023-06-10T04:20:30;18.00;99.90
23207;DHT22;11773;52.570;13.052;2023-06-10T04:23:00;18.00;99.90
23207;DHT22;11773;52.570;13.052;2023-06-10T04:25:29;18.20;99.90
23207;DHT22;11773;52.570;13.052;2023-06-10T04:27:59;18.00;99.90
23207;DHT22;11773;52.570;13.052;2023-06-10T04:30:29;18.00;99.90
23207;DHT22;11773;52.570;13.052;2023-06-10T04:32:59;18.20;99.90
23207;DHT22;11773;52.570;13.052;2023-06-10T04:35:28;18.20;99.90
23207;DHT22;11773;52.570;13.052;2023-06-10T04:37:58;18.10;99.90
23207;DHT22;11773;52.570;13.052;2023-06-10T04:40:27;18.20;99.90
23207;DHT22;11773;52.570;13.052;2023-06-10T04:42:57;18.20;99.90
23207;DHT22;11773;52.570;13.052;2023-06-10T04:45:27;18.40;99.90
23207;DHT22;11773;52.570;13.052;2023-06-10T04:47:57;18.50;99.90
23207;DHT22;11773;52.570;13.052;2023-06-10T04:50:27;18.50;99.90
23207;DHT22;11773;52.570;13.052;2023-06-10T04:52:56;18.60;99.90
23207;DHT22;11773;52.570;13.052;2023-06-10T04:55:26;18.40;99.90
23207;DHT22;11773;52.570;13.052;2023-06-10T04:57:55;18.40;99.90
23207;DHT22;11773;52.570;13.052;2023-06-10T05:00:25;18.40;99.90
23207;DHT22;11773;52.570;13.052;2023-06-10T05:02:55;18.40;99.90
23207;DHT22;11773;52.570;13.052;2023-06-10T05:05:25;18.20;99.90
23207;DHT22;11773;52.570;13.052;2023-06-10T05:07:54;18.40;99.90
23207;DHT22;11773;52.570;13.052;2023-06-10T05:10:24;18.50;99.90
23207;DHT22;11773;52.570;13.052;2023-06-10T05:12:53;18.60;99.90
23207;DHT22;11773;52.570;13.052;2023-06-10T05:15:23;18.60;99.90
23207;DHT22;11773;52.570;13.052;2023-06-10T05:17:53;18.70;99.90
23207;DHT22;11773;52.570;13.052;2023-06-10T05:20:24;19.10;99.90
23207;DHT22;11773;52.570;13.052;2023-06-10T05:22:56;19.50;99.90
23207;DHT22;11773;52.570;13.052;2023-06-10T05:25:28;20.00;99.90
23207;DHT22;11773;52.570;13.052;2023-06-10T05:28:01;20.40;99.90
23207;DHT22;11773;52.570;13.052;2023-06-10T05:30:30;20.70;99.90
23207;DHT22;11773;52.570;13.052;2023-06-10T05:33:00;20.80;99.90
23207;DHT22;11773;52.570;13.052;2023-06-10T05:35:30;20.80;99.90
23207;DHT22;11773;52.570;13.052;2023-06-10T05:37:59;21.20;99.90
23207;DHT22;11773;52.570;13.052;2023-06-10T05:40:31;21.60;99.90
23207;DHT22;11773;52.570;13.052;2023-06-10T05:43:00;21.50;99.90
23207;DHT22;11773;52.570;13.052;2023-06-10T05:45:30;21.80;99.90
23207;DHT22;11773;52.570;13.052;2023-06-10T05:47:59;21.60;99.90
23207;DHT22;11773;52.570;13.052;2023-06-10T05:50:29;21.90;99.90
23207;DHT22;11773;52.570;13.052;2023-06-10T05:52:58;22.00;99.90
23207;DHT22;11773;52.570;13.052;2023-06-10T05:55:28;22.10;99.90
23207;DHT22;11773;52.570;13.052;2023-06-10T05:58:00;22.50;99.90
23207;DHT22;11773;52.570;13.052;2023-06-10T06:00:30;22.50;99.90
23207;DHT22;11773;52.570;13.052;2023-06-10T06:03:01;22.80;99.90
23207;DHT22;11773;52.570;13.052;2023-06-10T06:05:31;22.90;99.90
23207;DHT22;11773;52.570;13.052;2023-06-10T06:08:03;23.20;99.90
23207;DHT22;11773;52.570;13.052;2023-06-10T06:10:33;23.20;99.90
23207;DHT22;11773;52.570;13.052;2023-06-10T06:13:03;23.30;99.90
23207;DHT22;11773;52.570;13.052;2023-06-10T06:15:33;23.20;99.90
23207;DHT22;11773;52.570;13.052;2023-06-10T06:18:02;23.40;99.90
23207;DHT22;11773;52.570;13.052;2023-06-10T06:20:32;23.70;99.90
23207;DHT22;11773;52.570;13.052;2023-06-10T06:23:01;23.50;99.90
23207;DHT22;11773;52.570;13.052;2023-06-10T06:25:31;23.70;99.90
23207;DHT22;11773;52.570;13.052;2023-06-10T06:28:01;23.70;99.90
23207;DHT22;11773;52.570;13.052;2023-06-10T06:30:31;23.90;99.90
23207;DHT22;11773;52.570;13.052;2023-06-10T06:33:01;24.10;99.90
23207;DHT22;11773;52.570;13.052;2023-06-10T06:35:32;24.20;99.90
23207;DHT22;11773;52.570;13.052;2023-06-10T06:38:02;24.40;99.90
23207;DHT22;11773;52.570;13.052;2023-06-10T06:40:32;24.60;99.90
23207;DHT22;11773;52.570;13.052;2023-06-10T06:43:01;24.70;99.90
23207;DHT22;11773;52.570;13.052;2023-06-10T06:45:31;24.90;99.90
23207;DHT22;11773;52.570;13.052;2023-06-10T06:48:01;24.80;99.90
23207;DHT22;11773;52.570;13.052;2023-06-10T06:50:31;25.10;99.90
23207;DHT22;11773;52.570;13.052;2023-06-10T06:53:01;25.40;99.90
23207;DHT22;11773;52.570;13.052;2023-06-10T06:55:31;25.50;99.90
23207;DHT22;11773;52.570;13.052;2023-06-10T06:58:00;25.50;99.90
23207;DHT22;11773;52.570;13.052;2023-06-10T07:00:32;25.70;99.90
23207;DHT22;11773;52.570;13.052;2023-06-10T07:03:02;25.90;99.90
23207;DHT22;11773;52.570;13.052;2023-06-10T07:05:32;25.60;99.90
23207;DHT22;11773;52.570;13.052;2023-06-10T07:08:01;25.70;99.90
23207;DHT22;11773;52.570;13.052;2023-06-10T07:10:31;25.70;99.90
23207;DHT22;11773;52.570;13.052;2023-06-10T07:13:01;25.40;99.90
23207;DHT22;11773;52.570;13.052;2023-06-10T07:15:30;25.10;99.90
23207;DHT22;11773;52.570;13.052;2023-06-10T07:18:01;25.00;99.90
23207;DHT22;11773;52.570;13.052;2023-06-10T07:20:31;24.80;99.90
23207;DHT22;11773;52.570;13.052;2023-06-10T07:23:00;24.70;99.90
23207;DHT22;11773;52.570;13.052;2023-06-10T07:25:30;24.60;99.90
23207;DHT22;11773;52.570;13.052;2023-06-10T07:28:00;24.30;99.90
23207;DHT22;11773;52.570;13.052;2023-06-10T07:30:29;24.60;99.90
23207;DHT22;11773;52.570;13.052;2023-06-10T07:32:59;24.60;99.90
23207;DHT22;11773;52.570;13.052;2023-06-10T07:35:30;24.40;99.90
23207;DHT22;11773;52.570;13.052;2023-06-10T07:38:00;24.20;99.90
23207;DHT22;11773;52.570;13.052;2023-06-10T07:40:29;24.60;99.90
23207;DHT22;11773;52.570;13.052;2023-06-10T07:43:01;25.20;99.90
23207;DHT22;11773;52.570;13.052;2023-06-10T07:45:30;25.30;99.90
23207;DHT22;11773;52.570;13.052;2023-06-10T07:48:00;25.60;99.90
23207;DHT22;11773;52.570;13.052;2023-06-10T07:50:29;26.10;99.90
23207;DHT22;11773;52.570;13.052;2023-06-10T07:53:00;26.10;99.90
23207;DHT22;11773;52.570;13.052;2023-06-10T07:55:29;26.10;99.90
23207;DHT22;11773;52.570;13.052;2023-06-10T07:57:59;25.80;99.90
23207;DHT22;11773;52.570;13.052;2023-06-10T08:00:29;26.50;99.90
23207;DHT22;11773;52.570;13.052;2023-06-10T08:02:58;26.80;99.90
23207;DHT22;11773;52.570;13.052;2023-06-10T08:05:28;26.90;99.90
23207;DHT22;11773;52.570;13.052;2023-06-10T08:07:58;26.70;99.90
23207;DHT22;11773;52.570;13.052;2023-06-10T08:10:29;26.80;99.90
23207;DHT22;11773;52.570;13.052;2023-06-10T08:12:59;26.70;99.90
23207;DHT22;11773;52.570;13.052;2023-06-10T08:15:28;26.40;99.90
23207;DHT22;11773;52.570;13.052;2023-06-10T08:17:58;25.90;99.90
23207;DHT22;11773;52.570;13.052;2023-06-10T08:20:28;25.80;99.90
23207;DHT22;11773;52.570;13.052;2023-06-10T08:22:57;26.20;99.90
23207;DHT22;11773;52.570;13.052;2023-06-10T08:25:28;26.30;99.90
23207;DHT22;11773;52.570;13.052;2023-06-10T08:27:58;26.30;99.90
23207;DHT22;11773;52.570;13.052;2023-06-10T08:30:27;26.20;99.90
23207;DHT22;11773;52.570;13.052;2023-06-10T08:32:58;25.90;99.90
23207;DHT22;11773;52.570;13.052;2023-06-10T08:35:28;26.20;99.90
23207;DHT22;11773;52.570;13.052;2023-06-10T08:37:58;26.30;99.90
23207;DHT22;11773;52.570;13.052;2023-06-10T08:40:28;26.50;99.90
23207;DHT22;11773;52.570;13.052;2023-06-10T08:43:05;26.60;99.90
23207;DHT22;11773;52.570;13.052;2023-06-10T08:45:38;26.50;99.90
23207;DHT22;11773;52.570;13.052;2023-06-10T08:48:11;26.40;99.90
23207;DHT22;11773;52.570;13.052;2023-06-10T08:50:43;26.40;99.90
23207;DHT22;11773;52.570;13.052;2023-06-10T08:53:18;27.00;99.90
23207;DHT22;11773;52.570;13.052;2023-06-10T08:55:50;27.40;99.90
23207;DHT22;11773;52.570;13.052;2023-06-10T08:58:20;27.80;99.90
23207;DHT22;11773;52.570;13.052;2023-06-10T09:00:51;27.50;99.90
23207;DHT22;11773;52.570;13.052;2023-06-10T09:03:21;27.20;99.90
23207;DHT22;11773;52.570;13.052;2023-06-10T09:05:52;27.30;99.90
23207;DHT22;11773;52.570;13.052;2023-06-10T09:08:24;27.60;99.90
23207;DHT22;11773;52.570;13.052;2023-06-10T09:10:54;27.90;99.90
23207;DHT22;11773;52.570;13.052;2023-06-10T09:13:23;28.20;99.90
23207;DHT22;11773;52.570;13.052;2023-06-10T09:15:53;28.30;99.90
23207;DHT22;11773;52.570;13.052;2023-06-10T09:18:24;28.30;99.90
23207;DHT22;11773;52.570;13.052;2023-06-10T09:20:53;28.60;99.90
23207;DHT22;11773;52.570;13.052;2023-06-10T09:23:23;28.50;99.60
23207;DHT22;11773;52.570;13.052;2023-06-10T09:25:57;28.20;99.90
23207;DHT22;11773;52.570;13.052;2023-06-10T09:28:27;28.20;99.90
23207;DHT22;11773;52.570;13.052;2023-06-10T09:31:04;28.50;99.90
23207;DHT22;11773;52.570;13.052;2023-06-10T09:33:39;28.40;99.90
23207;DHT22;11773;52.570;13.052;2023-06-10T09:36:09;28.30;99.90
23207;DHT22;11773;52.570;13.052;2023-06-10T09:38:40;28.10;99.90
23207;DHT22;11773;52.570;13.052;2023-06-10T09:41:09;28.10;99.90
23207;DHT22;11773;52.570;13.052;2023-06-10T09:43:42;28.50;99.90
23207;DHT22;11773;52.570;13.052;2023-06-10T09:46:20;28.60;99.80
23207;DHT22;11773;52.570;13.052;2023-06-10T09:48:50;28.60;99.00
23207;DHT22;11773;52.570;13.052;2023-06-10T09:51:19;28.30;99.60
23207;DHT22;11773;52.570;13.052;2023-06-10T09:53:54;28.40;99.60
23207;DHT22;11773;52.570;13.052;2023-06-10T09:56:34;28.30;99.70
23207;DHT22;11773;52.570;13.052;2023-06-10T09:59:04;28.10;99.90
23207;DHT22;11773;52.570;13.052;2023-06-10T10:01:35;28.10;99.90
23207;DHT22;11773;52.570;13.052;2023-06-10T10:04:04;28.10;99.90
23207;DHT22;11773;52.570;13.052;2023-06-10T10:06:34;28.10;99.90
23207;DHT22;11773;52.570;13.052;2023-06-10T10:09:06;28.00;99.90
23207;DHT22;11773;52.570;13.052;2023-06-10T10:11:36;28.00;99.90
23207;DHT22;11773;52.570;13.052;2023-06-10T10:14:06;27.80;99.90
23207;DHT22;11773;52.570;13.052;2023-06-10T10:16:39;27.70;99.90
23207;DHT22;11773;52.570;13.052;2023-06-10T10:19:25;27.50;99.90
23207;DHT22;11773;52.570;13.052;2023-06-10T10:22:01;27.50;99.90
23207;DHT22;11773;52.570;13.052;2023-06-10T10:24:42;27.30;99.90
23207;DHT22;11773;52.570;13.052;2023-06-10T10:27:18;27.30;99.90
23207;DHT22;11773;52.570;13.052;2023-06-10T10:29:55;27.20;99.90
23207;DHT22;11773;52.570;13.052;2023-06-10T10:32:32;27.20;99.90
23207;DHT22;11773;52.570;13.052;2023-06-10T10:35:23;27.10;99.90
23207;DHT22;11773;52.570;13.052;2023-06-10T10:37:55;26.70;99.90
23207;DHT22;11773;52.570;13.052;2023-06-10T10:40:26;26.50;99.90
23207;DHT22;11773;52.570;13.052;2023-06-10T10:42:57;26.50;99.90
23207;DHT22;11773;52.570;13.052;2023-06-10T10:45:28;26.40;99.90
23207;DHT22;11773;52.570;13.052;2023-06-10T10:47:58;26.20;99.90
23207;DHT22;11773;52.570;13.052;2023-06-10T10:50:31;26.10;99.90
23207;DHT22;11773;52.570;13.052;2023-06-10T10:53:03;26.10;99.90
23207;DHT22;11773;52.570;13.052;2023-06-10T10:55:34;26.10;99.90
23207;DHT22;11773;52.570;13.052;2023-06-10T10:58:05;26.10;99.90
23207;DHT22;11773;52.570;13.052;2023-06-10T11:00:37;25.80;99.90
23207;DHT22;11773;52.570;13.052;2023-06-10T11:03:15;25.80;99.90
23207;DHT22;11773;52.570;13.052;2023-06-10T11:05:48;25.60;99.90
23207;DHT22;11773;52.570;13.052;2023-06-10T11:11:19;25.60;99.90
23207;DHT22;11773;52.570;13.052;2023-06-10T11:16:43;25.60;99.90
23207;DHT22;11773;52.570;13.052;2023-06-10T11:19:33;25.60;99.90
23207;DHT22;11773;52.570;13.052;2023-06-10T11:22:06;25.60;99.90
23207;DHT22;11773;52.570;13.052;2023-06-10T11:24:37;25.50;99.90
23207;DHT22;11773;52.570;13.052;2023-06-10T11:27:20;25.60;99.90
23207;DHT22;11773;52.570;13.052;2023-06-10T11:32:37;25.70;99.90
23207;DHT22;11773;52.570;13.052;2023-06-10T11:35:07;25.70;99.90
23207;DHT22;11773;52.570;13.052;2023-06-10T11:37:38;25.70;99.90
23207;DHT22;11773;52.570;13.052;2023-06-10T11:40:08;25.60;99.90
23207;DHT22;11773;52.570;13.052;2023-06-10T11:42:43;25.60;99.90
23207;DHT22;11773;52.570;13.052;2023-06-10T11:45:17;25.60;99.90
23207;DHT22;11773;52.570;13.052;2023-06-10T11:47:59;25.70;99.90
23207;DHT22;11773;52.570;13.052;2023-06-10T11:50:33;25.50;99.90
23207;DHT22;11773;52.570;13.052;2023-06-10T11:53:03;25.60;99.90
23207;DHT22;11773;52.570;13.052;2023-06-10T11:55:41;25.50;99.90
23207;DHT22;11773;52.570;13.052;2023-06-10T11:58:23;25.60;99.90
23207;DHT22;11773;52.570;13.052;2023-06-10T12:00:51;25.30;99.90
23207;DHT22;11773;52.570;13.052;2023-06-10T12:03:22;25.50;99.90
23207;DHT22;11773;52.570;13.052;2023-06-10T12:05:59;25.40;99.90
23207;DHT22;11773;52.570;13.052;2023-06-10T12:08:30;25.50;99.90
23207;DHT22;11773;52.570;13.052;2023-06-10T12:11:02;25.50;99.90
23207;DHT22;11773;52.570;13.052;2023-06-10T12:13:32;25.30;99.90
23207;DHT22;11773;52.570;13.052;2023-06-10T12:16:09;25.30;99.90
23207;DHT22;11773;52.570;13.052;2023-06-10T12:18:39;25.30;99.90
23207;DHT22;11773;52.570;13.052;2023-06-10T12:21:18;25.10;99.90
23207;DHT22;11773;52.570;13.052;2023-06-10T12:24:09;25.40;99.90
23207;DHT22;11773;52.570;13.052;2023-06-10T12:26:41;25.60;99.90
23207;DHT22;11773;52.570;13.052;2023-06-10T12:29:20;25.70;99.90
23207;DHT22;11773;52.570;13.052;2023-06-10T12:34:38;25.80;99.90
23207;DHT22;11773;52.570;13.052;2023-06-10T12:37:12;25.80;99.90
23207;DHT22;11773;52.570;13.052;2023-06-10T12:39:42;26.00;99.90
23207;DHT22;11773;52.570;13.052;2023-06-10T12:42:15;26.20;99.90
23207;DHT22;11773;52.570;13.052;2023-06-10T12:44:44;26.10;99.90
23207;DHT22;11773;52.570;13.052;2023-06-10T12:47:14;26.00;99.90
23207;DHT22;11773;52.570;13.052;2023-06-10T12:49:44;26.20;99.90
23207;DHT22;11773;52.570;13.052;2023-06-10T12:52:14;26.10;99.90
23207;DHT22;11773;52.570;13.052;2023-06-10T12:54:43;26.00;99.90
23207;DHT22;11773;52.570;13.052;2023-06-10T12:57:13;26.10;99.90
23207;DHT22;11773;52.570;13.052;2023-06-10T12:59:42;26.20;99.90
23207;DHT22;11773;52.570;13.052;2023-06-10T13:02:14;26.10;99.90
23207;DHT22;11773;52.570;13.052;2023-06-10T13:04:47;26.40;99.90
23207;DHT22;11773;52.570;13.052;2023-06-10T13:07:16;26.60;99.90
23207;DHT22;11773;52.570;13.052;2023-06-10T13:09:46;26.70;99.90
23207;DHT22;11773;52.570;13.052;2023-06-10T13:12:17;26.90;99.90
23207;DHT22;11773;52.570;13.052;2023-06-10T13:14:48;27.10;99.90
23207;DHT22;11773;52.570;13.052;2023-06-10T13:17:18;27.10;99.80
23207;DHT22;11773;52.570;13.052;2023-06-10T13:19:48;27.00;99.70
23207;DHT22;11773;52.570;13.052;2023-06-10T13:22:18;27.10;99.90
23207;DHT22;11773;52.570;13.052;2023-06-10T13:24:47;27.30;99.90
23207;DHT22;11773;52.570;13.052;2023-06-10T13:27:17;27.30;99.90
23207;DHT22;11773;52.570;13.052;2023-06-10T13:29:47;27.30;99.90
23207;DHT22;11773;52.570;13.052;2023-06-10T13:32:16;27.30;99.90
23207;DHT22;11773;52.570;13.052;2023-06-10T13:34:46;27.50;99.90
23207;DHT22;11773;52.570;13.052;2023-06-10T13:37:17;27.40;99.80
23207;DHT22;11773;52.570;13.052;2023-06-10T13:39:46;27.50;99.90
23207;DHT22;11773;52.570;13.052;2023-06-10T13:42:18;27.60;99.90
23207;DHT22;11773;52.570;13.052;2023-06-10T13:44:48;27.60;99.80
23207;DHT22;11773;52.570;13.052;2023-06-10T13:47:19;27.60;99.70
23207;DHT22;11773;52.570;13.052;2023-06-10T13:49:48;27.70;99.60
23207;DHT22;11773;52.570;13.052;2023-06-10T13:52:18;27.70;99.60
23207;DHT22;11773;52.570;13.052;2023-06-10T13:54:48;27.90;99.70
23207;DHT22;11773;52.570;13.052;2023-06-10T13:57:17;27.90;99.90
23207;DHT22;11773;52.570;13.052;2023-06-10T13:59:47;28.10;99.90
23207;DHT22;11773;52.570;13.052;2023-06-10T14:02:16;28.00;99.90
23207;DHT22;11773;52.570;13.052;2023-06-10T14:04:47;28.10;99.90
23207;DHT22;11773;52.570;13.052;2023-06-10T14:07:16;28.20;99.90
23207;DHT22;11773;52.570;13.052;2023-06-10T14:09:46;28.20;99.60
23207;DHT22;11773;52.570;13.052;2023-06-10T14:12:15;28.30;98.90
23207;DHT22;11773;52.570;13.052;2023-06-10T14:14:45;28.40;98.60
23207;DHT22;11773;52.570;13.052;2023-06-10T14:17:15;28.40;97.60
23207;DHT22;11773;52.570;13.052;2023-06-10T14:19:44;28.60;97.10
23207;DHT22;11773;52.570;13.052;2023-06-10T14:22:14;28.60;97.40
23207;DHT22;11773;52.570;13.052;2023-06-10T14:24:43;28.70;98.60
23207;DHT22;11773;52.570;13.052;2023-06-10T14:27:15;28.70;99.00
23207;DHT22;11773;52.570;13.052;2023-06-10T14:29:44;28.90;98.10
23207;DHT22;11773;52.570;13.052;2023-06-10T14:32:14;28.80;97.70
23207;DHT22;11773;52.570;13.052;2023-06-10T14:34:43;28.90;97.90
23207;DHT22;11773;52.570;13.052;2023-06-10T14:37:14;28.90;97.70
23207;DHT22;11773;52.570;13.052;2023-06-10T14:39:44;28.90;97.40
23207;DHT22;11773;52.570;13.052;2023-06-10T14:42:14;28.80;97.00
23207;DHT22;11773;52.570;13.052;2023-06-10T14:44:43;28.90;97.10
23207;DHT22;11773;52.570;13.052;2023-06-10T14:47:13;28.90;96.10
23207;DHT22;11773;52.570;13.052;2023-06-10T14:49:42;29.00;97.00
23207;DHT22;11773;52.570;13.052;2023-06-10T14:52:12;28.80;96.60
23207;DHT22;11773;52.570;13.052;2023-06-10T14:54:41;29.00;97.10
23207;DHT22;11773;52.570;13.052;2023-06-10T14:57:11;29.00;97.20
23207;DHT22;11773;52.570;13.052;2023-06-10T14:59:41;29.00;96.60
23207;DHT22;11773;52.570;13.052;2023-06-10T15:02:10;29.00;96.50
23207;DHT22;11773;52.570;13.052;2023-06-10T15:04:40;29.00;95.60
23207;DHT22;11773;52.570;13.052;2023-06-10T15:07:09;29.00;96.60
23207;DHT22;11773;52.570;13.052;2023-06-10T15:09:39;29.10;95.20
23207;DHT22;11773;52.570;13.052;2023-06-10T15:12:09;28.90;94.00
23207;DHT22;11773;52.570;13.052;2023-06-10T15:14:38;29.00;94.10
23207;DHT22;11773;52.570;13.052;2023-06-10T15:17:08;29.10;93.50
23207;DHT22;11773;52.570;13.052;2023-06-10T15:19:37;29.10;93.60
23207;DHT22;11773;52.570;13.052;2023-06-10T15:22:07;29.00;93.10
23207;DHT22;11773;52.570;13.052;2023-06-10T15:24:38;29.00;94.10
23207;DHT22;11773;52.570;13.052;2023-06-10T15:27:08;29.10;94.00
23207;DHT22;11773;52.570;13.052;2023-06-10T15:29:38;29.10;93.60
23207;DHT22;11773;52.570;13.052;2023-06-10T15:32:08;29.10;93.10
23207;DHT22;11773;52.570;13.052;2023-06-10T15:34:39;29.00;94.70
23207;DHT22;11773;52.570;13.052;2023-06-10T15:37:08;28.90;93.60
23207;DHT22;11773;52.570;13.052;2023-06-10T15:39:38;28.80;93.50
23207;DHT22;11773;52.570;13.052;2023-06-10T15:42:08;28.90;93.80
23207;DHT22;11773;52.570;13.052;2023-06-10T15:44:37;29.00;94.20
23207;DHT22;11773;52.570;13.052;2023-06-10T15:47:07;28.90;94.00
23207;DHT22;11773;52.570;13.052;2023-06-10T15:49:37;28.90;93.40